createdAt,value
2023-03-16T00:01:19.061Z,96194.56
2023-03-16T00:06:20.571Z,96189.81
2023-03-16T00:11:22.095Z,96184.28
2023-03-16T00:16:23.648Z,96192.38
2023-03-16T00:21:25.172Z,96195.28
2023-03-16T00:26:26.658Z,96192.78
2023-03-16T00:31:28.272Z,96197.56
2023-03-16T00:36:30.369Z,96201.72
2023-03-16T00:41:31.925Z,96195.38
2023-03-16T00:46:33.533Z,96197.97
2023-03-16T00:51:35.874Z,96208.47
2023-03-16T00:56:37.459Z,96210.88
2023-03-16T01:01:39.293Z,96196.16
2023-03-16T01:06:41.803Z,96189.06
2023-03-16T01:11:43.800Z,96190.94
2023-03-16T01:16:45.972Z,96187.81
2023-03-16T01:21:47.564Z,96188.91
2023-03-16T01:26:50.259Z,96184.19
2023-03-16T01:31:52.129Z,96193.41
2023-03-16T01:36:54.437Z,96184.84
2023-03-16T01:42:03.601Z,96185.94
2023-03-16T01:47:05.934Z,96192.44
2023-03-16T01:52:16.672Z,96177.84
2023-03-16T01:57:23.699Z,96184.50
2023-03-16T02:02:29.486Z,96189.88
2023-03-16T02:07:35.979Z,96187.19
2023-03-16T02:12:37.748Z,96190.22
2023-03-16T02:17:42.700Z,96188.63
2023-03-16T02:22:48.820Z,96190.06
2023-03-16T02:28:15.892Z,96191.19
2023-03-16T02:33:21.371Z,96186.13
2023-03-16T02:38:22.993Z,96189.63
2023-03-16T02:43:33.447Z,96187.38
2023-03-16T02:49:32.665Z,96169.31
2023-03-16T02:54:34.324Z,96173.59
2023-03-16T02:59:36.110Z,96180.09
2023-03-16T03:04:37.864Z,96193.13
2023-03-16T03:09:45.190Z,96199.94
2023-03-16T03:14:46.734Z,96207.25
2023-03-16T03:19:51.869Z,96203.25
2023-03-16T03:24:53.634Z,96197.44
2023-03-16T03:29:55.219Z,96189.66
2023-03-16T03:34:56.879Z,96205.34
2023-03-16T03:39:59.286Z,96193.00
2023-03-16T03:45:01.171Z,96182.06
2023-03-16T03:50:02.935Z,96189.06
2023-03-16T03:55:08.807Z,96195.09
2023-03-16T04:00:13.349Z,96196.19
2023-03-16T04:05:14.940Z,96208.41
2023-03-16T04:10:16.674Z,96206.84
2023-03-16T04:15:18.395Z,96214.59
2023-03-16T04:20:34.741Z,96209.06
2023-03-16T04:25:38.719Z,96213.97
2023-03-16T04:30:42.971Z,96208.94
2023-03-16T04:36:00.696Z,96207.69
2023-03-16T04:41:04.637Z,96199.78
2023-03-16T04:46:13.131Z,96192.78
2023-03-16T04:51:15.430Z,96182.34
2023-03-16T04:56:26.054Z,96173.47
2023-03-16T05:01:33.360Z,96174.28
2023-03-16T05:06:37.510Z,96171.91
2023-03-16T05:11:40.182Z,96177.59
2023-03-16T05:16:44.917Z,96177.16
2023-03-16T05:21:46.568Z,96177.47
2023-03-16T05:26:48.201Z,96178.59
2023-03-16T05:31:51.874Z,96186.66
2023-03-16T05:36:57.348Z,96190.44
2023-03-16T05:41:59.482Z,96192.84
2023-03-16T05:47:12.473Z,96183.63
2023-03-16T05:52:18.351Z,96166.38
2023-03-16T05:57:20.117Z,96181.09
2023-03-16T06:02:25.370Z,96175.06
2023-03-16T06:07:29.172Z,96186.75
2023-03-16T06:12:31.744Z,96180.56
2023-03-16T06:17:34.654Z,96193.09
2023-03-16T06:22:41.620Z,96201.94
2023-03-16T06:27:43.515Z,96188.94
2023-03-16T06:32:48.776Z,96200.66
2023-03-16T06:37:50.399Z,96200.81
2023-03-16T06:43:07.476Z,96201.75
2023-03-16T06:48:09.867Z,96201.09
2023-03-16T06:53:11.580Z,96205.50
2023-03-16T06:58:13.983Z,96206.13
2023-03-16T07:03:15.632Z,96212.09
2023-03-16T07:08:22.906Z,96215.41
2023-03-16T07:13:24.535Z,96225.22
2023-03-16T07:18:26.321Z,96225.81
2023-03-16T07:23:28.706Z,96223.28
2023-03-16T07:28:36.556Z,96225.31
2023-03-16T07:33:40.202Z,96233.09
2023-03-16T07:38:45.321Z,96240.16
2023-03-16T07:43:48.649Z,96234.28
2023-03-16T07:48:50.404Z,96240.72
2023-03-16T07:53:52.073Z,96242.13
2023-03-16T07:59:00.345Z,96254.78
2023-03-16T08:04:02.988Z,96255.47
2023-03-16T08:09:05.793Z,96249.25
2023-03-16T08:14:11.154Z,96246.81
2023-03-16T08:19:35.670Z,96254.69
2023-03-16T08:24:39.514Z,96254.06
2023-03-16T08:29:43.904Z,96252.41
2023-03-16T08:34:50.099Z,96251.88
2023-03-16T08:39:53.094Z,96253.84
2023-03-16T08:44:55.804Z,96246.44
2023-03-16T08:49:58.744Z,96235.88
2023-03-16T08:55:03.923Z,96237.38
2023-03-16T09:00:13.498Z,96229.97
2023-03-16T09:05:16.020Z,96229.22
2023-03-16T09:10:19.751Z,96224.84
2023-03-16T09:15:21.653Z,96236.78
2023-03-16T09:20:35.150Z,96238.38
2023-03-16T09:25:36.841Z,96237.28
2023-03-16T09:30:38.344Z,96246.50
2023-03-16T09:35:39.880Z,96255.63
2023-03-16T09:40:41.639Z,96253.84
2023-03-16T09:45:54.102Z,96246.50
2023-03-16T09:50:56.865Z,96237.69
2023-03-16T09:56:15.689Z,96237.59
2023-03-16T10:01:43.363Z,96240.50
2023-03-16T10:07:12.173Z,96239.97
2023-03-16T10:12:14.542Z,96230.13
2023-03-16T10:17:29.116Z,96227.41
2023-03-16T10:22:34.804Z,96222.75
2023-03-16T10:27:38.561Z,96221.13
2023-03-16T10:32:40.378Z,96224.22
2023-03-16T10:37:41.860Z,96225.22
2023-03-16T10:42:43.844Z,96221.56
2023-03-16T10:47:45.409Z,96220.38
2023-03-16T10:52:49.583Z,96212.53
2023-03-16T10:57:55.014Z,96212.78
2023-03-16T11:02:59.773Z,96211.38
2023-03-16T11:08:25.527Z,96207.28
2023-03-16T11:13:35.877Z,96200.56
2023-03-16T11:18:43.847Z,96190.31
2023-03-16T11:23:52.751Z,96190.03
2023-03-16T11:29:09.540Z,96186.44
2023-03-16T11:34:27.418Z,96180.91
2023-03-16T11:40:02.339Z,96175.72
2023-03-16T11:45:32.841Z,96170.16
2023-03-16T11:50:47.071Z,96164.63
2023-03-16T11:56:15.679Z,96161.50
2023-03-16T12:01:28.517Z,96154.41
2023-03-16T12:06:38.668Z,96151.63
2023-03-16T12:12:04.684Z,96139.44
2023-03-16T12:17:09.213Z,96135.06
2023-03-16T12:22:20.094Z,96118.56
2023-03-16T12:27:38.875Z,96122.75
2023-03-16T12:33:00.950Z,96121.75
2023-03-16T12:38:22.620Z,96120.38
2023-03-16T12:43:54.789Z,96092.97
2023-03-16T12:49:01.171Z,96089.22
2023-03-16T12:54:05.855Z,96092.44
2023-03-16T12:59:07.978Z,96094.09
2023-03-16T13:04:15.688Z,96087.66
2023-03-16T13:09:28.412Z,96083.94
2023-03-16T13:14:44.137Z,96067.34
2023-03-16T13:19:58.705Z,96070.63
2023-03-16T13:25:22.758Z,96068.44
2023-03-16T13:30:28.882Z,96055.69
2023-03-16T13:35:31.846Z,96040.63
2023-03-16T13:40:33.625Z,96040.72
2023-03-16T13:45:38.818Z,96041.94
2023-03-16T13:50:42.437Z,96031.88
2023-03-16T13:55:47.106Z,96031.16
2023-03-16T14:00:48.881Z,96041.75
2023-03-16T14:05:50.456Z,96038.72
2023-03-16T14:10:59.824Z,96036.09
2023-03-16T14:16:11.937Z,96030.34
2023-03-16T14:21:17.694Z,96030.81
2023-03-16T14:26:23.139Z,96030.50
2023-03-16T14:31:34.137Z,96013.41
2023-03-16T14:36:39.035Z,96000.97
2023-03-16T14:41:40.637Z,96001.00
2023-03-16T14:46:42.727Z,96002.97
2023-03-16T14:51:46.873Z,96008.06
2023-03-16T14:56:51.692Z,96003.81
2023-03-16T15:01:55.205Z,95986.25
2023-03-16T15:06:57.834Z,95975.28
2023-03-16T15:11:59.546Z,95981.94
2023-03-16T15:17:01.633Z,95971.38
2023-03-16T15:22:04.566Z,95954.59
2023-03-16T15:27:22.743Z,95962.41
2023-03-16T15:32:24.403Z,95959.28
2023-03-16T15:37:27.626Z,95950.69
2023-03-16T15:42:29.465Z,95943.59
2023-03-16T15:47:31.372Z,95930.31
2023-03-16T15:52:36.675Z,95921.72
2023-03-16T15:57:38.298Z,95920.16
2023-03-16T16:02:39.842Z,95917.03
2023-03-16T16:07:41.509Z,95918.59
2023-03-16T16:12:51.409Z,95915.91
2023-03-16T16:18:19.189Z,95926.84
2023-03-16T16:23:15.772Z,95935.06
2023-03-16T16:28:39.268Z,95923.72
2023-03-16T16:33:40.865Z,95927.63
2023-03-16T16:38:42.395Z,95938.16
2023-03-16T16:43:47.548Z,95941.25
2023-03-16T16:48:52.115Z,95942.03
2023-03-16T16:53:55.872Z,95953.72
2023-03-16T16:59:01.532Z,95964.59
2023-03-16T17:04:03.422Z,95951.66
2023-03-16T17:09:05.822Z,95957.06
2023-03-16T17:14:08.270Z,95964.41
2023-03-16T17:19:18.387Z,95966.69
2023-03-16T17:24:19.919Z,95966.22
2023-03-16T17:29:31.319Z,95960.66
2023-03-16T17:34:34.176Z,95952.00
2023-03-16T17:39:36.908Z,95937.13
2023-03-16T17:44:44.013Z,95937.41
2023-03-16T17:49:48.629Z,95941.19
2023-03-16T17:54:51.973Z,95936.44
2023-03-16T17:59:53.855Z,95936.75
2023-03-16T18:04:55.390Z,95927.69
2023-03-16T18:09:56.877Z,95928.75
2023-03-16T18:14:58.710Z,95929.06
2023-03-16T18:20:00.332Z,95919.69
2023-03-16T18:25:02.123Z,95912.22
2023-03-16T18:30:03.910Z,95911.75
2023-03-16T18:35:06.773Z,95918.66
2023-03-16T18:40:17.294Z,95925.59
2023-03-16T18:45:18.903Z,95929.84
2023-03-16T18:50:27.619Z,95931.72
2023-03-16T18:55:30.672Z,95940.22
2023-03-16T19:00:33.442Z,95931.22
2023-03-16T19:05:36.697Z,95926.50
2023-03-16T19:10:52.749Z,95921.38
2023-03-16T19:15:55.946Z,95915.44
2023-03-16T19:20:57.600Z,95911.16
2023-03-16T19:25:59.154Z,95913.00
2023-03-16T19:31:01.951Z,95913.31
2023-03-16T19:36:04.750Z,95907.38
2023-03-16T19:41:18.285Z,95907.78
2023-03-16T19:46:20.372Z,95906.94
2023-03-16T19:51:22.264Z,95913.47
2023-03-16T19:56:26.603Z,95906.06
2023-03-16T20:01:32.952Z,95909.09
2023-03-16T20:06:34.736Z,95905.53
2023-03-16T20:11:36.469Z,95903.19
2023-03-16T20:16:38.025Z,95916.72
2023-03-16T20:21:39.574Z,95902.31
2023-03-16T20:26:41.144Z,95904.63
2023-03-16T20:31:42.751Z,95898.75
2023-03-16T20:36:44.294Z,95890.56
2023-03-16T20:41:45.885Z,95885.47
2023-03-16T20:46:47.652Z,95887.00
2023-03-16T20:51:49.812Z,95883.50
2023-03-16T20:56:51.480Z,95879.59
2023-03-16T21:01:55.680Z,95875.59
2023-03-16T21:06:57.547Z,95874.38
2023-03-16T21:11:59.178Z,95875.13
2023-03-16T21:17:01.049Z,95878.94
2023-03-16T21:22:02.576Z,95884.31
2023-03-16T21:27:04.081Z,95873.78
2023-03-16T21:32:16.519Z,95873.75
2023-03-16T21:37:20.827Z,95883.75
2023-03-16T21:42:22.403Z,95879.06
2023-03-16T21:47:27.955Z,95878.25
2023-03-16T21:52:30.271Z,95866.09
2023-03-16T21:57:32.298Z,95873.00
2023-03-16T22:02:35.920Z,95866.72
2023-03-16T22:07:37.545Z,95860.81
2023-03-16T22:12:39.043Z,95860.34
2023-03-16T22:17:40.762Z,95852.13
2023-03-16T22:22:42.584Z,95860.22
2023-03-16T22:27:44.306Z,95861.28
2023-03-16T22:32:49.093Z,95853.44
2023-03-16T22:37:51.013Z,95849.53
2023-03-16T22:42:52.553Z,95845.97
2023-03-16T22:47:56.730Z,95844.34
2023-03-16T22:53:02.601Z,95852.41
2023-03-16T22:58:15.362Z,95851.94
2023-03-16T23:03:19.741Z,95843.72
2023-03-16T23:08:23.483Z,95852.22
2023-03-16T23:13:25.933Z,95846.31
2023-03-16T23:18:27.418Z,95834.28
2023-03-16T23:23:28.931Z,95838.84
2023-03-16T23:28:30.404Z,95841.50
2023-03-16T23:33:32.069Z,95843.00
2023-03-16T23:38:33.662Z,95835.94
2023-03-16T23:43:35.548Z,95844.78
2023-03-16T23:48:39.045Z,95830.78
2023-03-16T23:53:41.881Z,95833.44
2023-03-16T23:58:43.674Z,95832.22
